createdAt,value
2023-01-05T00:02:52.267Z,1.60
2023-01-05T00:07:57.569Z,1.42
2023-01-05T00:13:01.193Z,1.00
2023-01-05T00:18:04.921Z,1.42
2023-01-05T00:23:10.508Z,1.52
2023-01-05T00:28:14.178Z,1.70
2023-01-05T00:33:18.694Z,2.22
2023-01-05T00:38:23.998Z,2.38
2023-01-05T00:43:27.670Z,2.60
2023-01-05T00:48:31.326Z,2.90
2023-01-05T00:53:36.690Z,1.98
2023-01-05T00:58:40.325Z,1.27
2023-01-05T01:03:44.031Z,1.50
2023-01-05T01:08:49.421Z,2.15
2023-01-05T01:13:53.062Z,2.03
2023-01-05T01:18:59.662Z,2.17
2023-01-05T01:24:08.673Z,2.00
2023-01-05T01:29:12.563Z,2.17
2023-01-05T01:34:16.351Z,1.73
2023-01-05T01:39:21.708Z,1.10
2023-01-05T01:44:50.641Z,0.90
2023-01-05T01:49:56.499Z,0.60
2023-01-05T01:55:04.394Z,0.73
2023-01-05T02:00:10.770Z,0.50
2023-01-05T02:05:17.140Z,0.40
2023-01-05T02:10:45.658Z,0.47
2023-01-05T02:15:56.213Z,0.73
2023-01-05T02:21:19.687Z,1.17
2023-01-05T02:27:12.984Z,1.50
2023-01-05T02:32:23.471Z,1.85
2023-01-05T02:37:33.609Z,2.20
2023-01-05T02:42:39.859Z,2.53
2023-01-05T02:47:46.419Z,2.25
2023-01-05T02:52:56.613Z,1.95
2023-01-05T02:58:04.693Z,2.13
2023-01-05T03:03:16.306Z,1.92
2023-01-05T03:08:25.085Z,1.85
2023-01-05T03:13:35.065Z,1.83
2023-01-05T03:18:59.679Z,1.40
2023-01-05T03:24:03.381Z,1.35
2023-01-05T03:29:07.093Z,0.90
2023-01-05T03:34:18.227Z,1.58
2023-01-05T03:39:26.961Z,1.40
2023-01-05T03:44:30.594Z,1.40
2023-01-05T03:49:36.301Z,1.67
2023-01-05T03:54:39.959Z,1.92
2023-01-05T03:59:43.632Z,1.30
2023-01-05T04:04:48.994Z,1.23
2023-01-05T04:09:52.721Z,2.00
2023-01-05T04:47:38.769Z,2.97
2023-01-05T04:52:42.439Z,3.30
2023-01-05T04:57:46.256Z,2.78
2023-01-05T05:02:51.751Z,3.92
2023-01-05T05:07:55.435Z,3.10
2023-01-05T05:12:59.064Z,3.78
2023-01-05T05:18:08.927Z,3.17
2023-01-05T05:23:13.249Z,3.90
2023-01-05T05:28:16.924Z,3.70
2023-01-05T05:33:25.139Z,3.90
2023-01-05T05:38:28.789Z,4.00
2023-01-05T05:43:32.488Z,3.72
2023-01-05T05:48:37.875Z,2.97
2023-01-05T05:53:42.590Z,3.20
2023-01-05T15:34:24.479Z,4.28
2023-01-05T18:19:39.605Z,2.55
2023-01-05T18:24:43.623Z,2.60
2023-01-05T18:29:47.243Z,2.25
2023-01-05T18:34:52.530Z,2.17
2023-01-05T18:39:56.172Z,1.87
2023-01-05T18:45:04.909Z,2.40
2023-01-05T18:50:20.435Z,2.35
2023-01-05T18:55:24.080Z,2.65
2023-01-05T19:00:27.819Z,1.67
2023-01-05T19:05:33.191Z,1.77
2023-01-05T19:10:37.377Z,2.00
2023-01-05T19:15:41.024Z,2.03
2023-01-05T19:20:46.346Z,1.83
2023-01-05T19:25:49.993Z,1.87
2023-01-05T19:30:53.665Z,2.40
2023-01-05T19:36:04.318Z,1.70
2023-01-05T19:41:11.110Z,1.80
2023-01-05T19:46:15.907Z,1.67
2023-01-05T19:51:22.541Z,1.77
2023-01-05T19:56:27.891Z,1.90
2023-01-05T20:01:34.673Z,1.60
2023-01-05T20:06:41.946Z,2.17
2023-01-05T20:11:47.807Z,2.20
2023-01-05T20:16:52.892Z,2.75
2023-01-05T20:22:00.191Z,2.60
2023-01-05T20:27:06.453Z,2.13
2023-01-05T20:32:12.181Z,1.83
2023-01-05T20:37:17.482Z,2.25
2023-01-05T20:42:21.828Z,2.40
2023-01-05T20:47:25.501Z,2.28
2023-01-05T20:52:31.351Z,2.58
2023-01-05T20:57:35.004Z,2.70
2023-01-05T21:02:38.737Z,2.60
2023-01-05T21:07:44.834Z,3.30
2023-01-05T21:12:48.470Z,2.95
2023-01-05T21:17:52.116Z,3.15
2023-01-05T21:22:57.511Z,3.20
2023-01-05T21:28:01.162Z,3.17
2023-01-05T21:33:04.920Z,3.28
2023-01-05T21:38:10.251Z,3.10
2023-01-05T21:43:13.937Z,3.97
2023-01-05T21:48:17.589Z,3.10
2023-01-05T21:53:22.919Z,3.45
2023-01-05T21:58:26.635Z,3.23
2023-01-05T22:03:30.755Z,3.20
2023-01-05T22:08:36.179Z,3.40
2023-01-05T22:13:40.627Z,2.70
2023-01-05T22:18:44.243Z,3.28
2023-01-05T22:23:49.584Z,2.97
2023-01-05T22:28:53.904Z,2.90
2023-01-05T22:33:58.749Z,3.25
2023-01-05T22:39:04.033Z,3.28
2023-01-05T22:44:08.237Z,3.43
2023-01-05T22:49:14.589Z,3.15
2023-01-05T22:54:19.980Z,3.35
2023-01-05T22:59:23.653Z,2.73
2023-01-05T23:04:27.359Z,3.72
2023-01-05T23:09:32.664Z,3.20
2023-01-05T23:14:36.299Z,3.43
2023-01-05T23:19:40.824Z,4.10
2023-01-05T23:24:46.265Z,3.42
2023-01-05T23:29:49.878Z,3.67
2023-01-05T23:34:53.511Z,3.40
2023-01-05T23:39:58.783Z,4.20
2023-01-05T23:45:02.432Z,4.43
2023-01-05T23:50:06.976Z,3.78
2023-01-05T23:55:14.157Z,4.30
